ADDS METAR Data INFO
IDs: Format: Raw Decoded Include TAF

Data at: 2357 UTC 23 Feb 2018

KDKX 232140Z AUTO 25008KT 10SM CLR 26/14 A3024 RMK A01
KDKX 232135Z AUTO 26006G12KT 10SM CLR 26/13 A3024 RMK A01
KDKX 232115Z AUTO 28006G14KT 10SM FEW060 27/13 A3025 RMK A01
KDKX 232055Z AUTO 24007KT 10SM FEW060 27/14 A3025 RMK A01
KDKX 232035Z AUTO 26007KT 10SM CLR 27/13 A3026 RMK A01
KDKX 232015Z AUTO 25009G17KT 10SM CLR 26/13 A3027 RMK A01
KDKX 231955Z AUTO 24013G18KT 10SM FEW075 27/14 A3028 RMK A01
KDKX 231935Z AUTO 27008G16KT 10SM CLR 27/13 A3029 RMK A01
KDKX 231915Z AUTO 26010G17KT 10SM CLR 27/14 A3029 RMK A01
KDKX 231855Z AUTO 26008G16KT 10SM CLR 26/14 A3030 RMK A01
KDKX 231835Z AUTO 25012KT 10SM FEW060 26/14 A3032 RMK A01
KDKX 231815Z AUTO 26015KT 10SM FEW060 26/14 A3033 RMK A01
KDKX 231755Z AUTO 26013G20KT 10SM FEW048 SCT060 25/15 A3035 RMK A01
KDKX 231735Z AUTO 24015KT 10SM SCT048 BKN055 24/15 A3035 RMK A01
KDKX 231715Z AUTO 26009G21KT 10SM SCT044 BKN050 25/15 A3036 RMK A01
KDKX 231655Z AUTO 25014KT 10SM SCT043 25/15 A3037 RMK A01
KDKX 231635Z AUTO 25016G24KT 10SM CLR 25/16 A3037 RMK A01
KDKX 231615Z AUTO 25013G20KT 10SM CLR 24/16 A3037 RMK A01
KDKX 231555Z AUTO 24009G15KT 220V290 10SM CLR 24/16 A3037 RMK A01
KDKX 231535Z AUTO 00000KT 10SM CLR 20/16 A3037 RMK A01
KDKX 231515Z AUTO 00000KT 10SM CLR 19/18 A3037 RMK A01
KDKX 231455Z AUTO 00000KT 10SM CLR 17/17 A3037 RMK A01
KDKX 231435Z AUTO 00000KT 10SM CLR 16/16 A3037 RMK A01
KDKX 231415Z AUTO 00000KT 8SM FEW002 15/15 A3037 RMK A01
KDKX 231355Z AUTO 00000KT M1/4SM FG OVC002 13/13 A3037 RMK A01
KDKX 231335Z AUTO 00000KT M1/4SM FG OVC002 13/13 A3037 RMK A01
KDKX 231315Z AUTO 00000KT M1/4SM FG OVC002 12/12 A3037 RMK A01
KDKX 231255Z AUTO 00000KT M1/4SM FG OVC002 11/11 A3038 RMK A01
KDKX 231235Z AUTO 00000KT M1/4SM FG OVC002 11/11 A3037 RMK A01
KDKX 231210Z AUTO 00000KT 1/4SM FG OVC002 11/11 A3037 RMK A01
KDKX 231155Z AUTO 00000KT 1/4SM FG OVC002 12/12 A3037 RMK A01
KDKX 231135Z AUTO 00000KT 1/2SM FG OVC002 12/12 A3037 RMK A01
KDKX 231115Z AUTO 00000KT 1/4SM FG 12/12 A3037 RMK A01
KDKX 231055Z AUTO 00000KT M1/4SM FG 12/12 A3037 RMK A01
KDKX 231035Z AUTO 00000KT 1/4SM FG 12/12 A3037 RMK A01
KDKX 231010Z AUTO 00000KT 1/4SM FG OVC002 12/12 A3037 RMK A01
KDKX 230955Z AUTO 00000KT M1/4SM FG OVC002 12/12 A3037 RMK A01
KDKX 230935Z AUTO 10003KT M1/4SM FG OVC002 12/12 A3036 RMK A01
KDKX 230915Z AUTO 00000KT M1/4SM FG OVC002 12/12 A3037 RMK A01
KDKX 230855Z AUTO 00000KT M1/4SM FG 12/12 A3036 RMK A01
KDKX 230835Z AUTO 00000KT 1/2SM FG 12/12 A3036 RMK A01
KDKX 230815Z AUTO 00000KT 1/4SM FG OVC002 12/12 A3037 RMK A01
KDKX 230755Z AUTO 00000KT 1/4SM FG OVC002 12/12 A3036 RMK A01
KDKX 230735Z AUTO 00000KT 1/4SM FG BKN002 OVC050 12/12 A3036 RMK A01
KDKX 230715Z AUTO 00000KT 1SM BR BKN002 OVC050 12/12 A3036 RMK A01 VIS 1/2V2
KDKX 230655Z AUTO 00000KT 1SM BR BKN002 OVC050 12/12 A3036 RMK A01
KDKX 230635Z AUTO 00000KT 1/4SM FG SCT002 OVC050 12/12 A3036 RMK A01
KDKX 230615Z AUTO 00000KT 3/4SM BR BKN002 OVC050 12/12 A3036 RMK A01 VIS 1/4V4
KDKX 230555Z AUTO 00000KT 1/4SM FG SCT002 OVC050 12/12 A3036 RMK A01
KDKX 230535Z AUTO 00000KT 2 1/2SM BR CLR 13/13 A3037 RMK A01
KDKX 230515Z AUTO 00000KT 1SM BR SCT001 SCT050 13/13 A3036 RMK A01 VIS 1/2V5
KDKX 230455Z AUTO 00000KT 6SM BR CLR 13/13 A3036 RMK A01
KDKX 230435Z AUTO 00000KT 3/4SM BR SCT050 13/13 A3037 RMK A01
KDKX 230415Z AUTO 00000KT 1/4SM FG VV002 14/14 A3036 RMK A01
KDKX 230355Z AUTO 00000KT 2 1/2SM BR CLR 13/13 A3036 RMK A01 VIS 1V5
KDKX 230335Z AUTO 00000KT 1SM BR SCT041 14/14 A3036 RMK A01
KDKX 230315Z AUTO 00000KT 3SM BR FEW043 FEW050 14/14 A3036 RMK A01
KDKX 230255Z AUTO 00000KT 10SM FEW046 FEW050 14/14 A3036 RMK A01
KDKX 230235Z AUTO 00000KT 10SM FEW045 15/15 A3035 RMK A01
KDKX 230215Z AUTO 00000KT 10SM FEW045 15/15 A3035 RMK A01
KDKX 230155Z AUTO 00000KT 10SM FEW047 15/15 A3035 RMK A01
KDKX 230135Z AUTO 00000KT 10SM CLR 16/15 A3035 RMK A01
KDKX 230115Z AUTO 00000KT 10SM FEW043 16/15 A3035 RMK A01
KDKX 230055Z AUTO 00000KT 10SM FEW046 17/16 A3034 RMK A01
KDKX 230035Z AUTO 00000KT 10SM FEW046 17/16 A3033 RMK A01
KDKX 230015Z AUTO 00000KT 10SM CLR 18/16 A3033 RMK A01
KDKX 222355Z AUTO 00000KT 10SM CLR 18/16 A3033 RMK A01
KDKX 222335Z AUTO 00000KT 10SM CLR 19/17 A3032 RMK A01
KDKX 222315Z AUTO 00000KT 10SM CLR 20/16 A3032 RMK A01
KDKX 222255Z AUTO 00000KT 10SM SCT080 SCT090 20/16 A3032 RMK A01
KDKX 222235Z AUTO 00000KT 10SM BKN080 BKN090 22/17 A3032 RMK A01
KDKX 222215Z AUTO 31006G13KT 10SM FEW060 BKN075 BKN090 23/17 A3033 RMK A01
KDKX 222155Z AUTO 26006KT 10SM FEW060 BKN075 OVC100 25/15 A3032 RMK A01
KDKX 222135Z AUTO 28006KT 10SM SCT075 BKN100 26/15 A3031 RMK A01
KDKX 222115Z AUTO 27006KT 10SM FEW080 SCT100 26/15 A3031 RMK A01
KDKX 222055Z AUTO 28008KT 10SM FEW075 SCT095 26/14 A3031 RMK A01
KDKX 222035Z AUTO 26007G15KT 10SM SCT075 27/14 A3031 RMK A01
KDKX 222015Z AUTO 26011G17KT 10SM CLR 28/15 A3031 RMK A01
KDKX 221955Z AUTO 26008G18KT 230V300 10SM FEW050 27/15 A3032 RMK A01
KDKX 221935Z AUTO 26008G14KT 10SM SCT049 SCT060 27/15 A3033 RMK A01
KDKX 221915Z AUTO 26010G15KT 10SM SCT047 SCT060 SCT075 27/16 A3034 RMK A01
KDKX 221855Z AUTO 23011G18KT 10SM FEW044 SCT060 SCT095 27/16 A3035 RMK A01
KDKX 221835Z AUTO 26010G19KT 10SM FEW044 SCT060 26/16 A3036 RMK A01
KDKX 221815Z AUTO 25011G18KT 10SM CLR 26/16 A3036 RMK A01
KDKX 221755Z AUTO 25013G21KT 230V290 10SM FEW100 26/16 A3037 RMK A01
KDKX 221735Z AUTO 24017KT 10SM CLR 26/16 A3038 RMK A01
KDKX 221715Z AUTO 24015G26KT 10SM CLR 26/16 A3038 RMK A01
KDKX 221655Z AUTO 24013G22KT 10SM SCT060 SCT070 SCT080 25/16 A3039 RMK A01
KDKX 221635Z AUTO 23011G18KT 10SM BKN060 BKN075 24/17 A3040 RMK A01
KDKX 221615Z AUTO 24012KT 10SM SCT065 SCT085 24/17 A3039 RMK A01
KDKX 221555Z AUTO 25010G18KT 10SM SCT065 BKN075 BKN085 23/17 A3039 RMK A01
KDKX 221535Z AUTO 24008G18KT 10SM OVC065 23/17 A3040 RMK A01
KDKX 221515Z AUTO 22012G25KT 10SM OVC065 22/17 A3039 RMK A01
KDKX 221455Z AUTO 24011G17KT 10SM SCT032 SCT050 BKN065 22/17 A3039 RMK A01
KDKX 221435Z AUTO 26010KT 10SM SCT034 BKN055 OVC070 22/16 A3040 RMK A01
KDKX 221415Z AUTO 25010G16KT 10SM SCT070 23/17 A3039 RMK A01
KDKX 221355Z AUTO 25008G15KT 10SM FEW065 22/17 A3039 RMK A01
KDKX 221335Z AUTO 25007G13KT 10SM FEW065 21/17 A3038 RMK A01
KDKX 221315Z AUTO 25007KT 10SM FEW050 21/16 A3038 RMK A01
KDKX 221255Z AUTO 26005KT 10SM CLR 20/16 A3037 RMK A01
KDKX 221235Z AUTO 25005KT 10SM CLR 19/16 A3036 RMK A01
KDKX 221215Z AUTO 24006KT 10SM FEW050 19/16 A3035 RMK A01